Royalton, Wisconsin
Current Conditions -  °F | °C
As of 3:15 PM on Sunday 23 Nov 2014 (Local Time) from KPCZ Reporting Station
Light Rain Light Rain  
Wind Chill: 46°   Ceiling: 400
Heat Index: 48°   Visibility: 4mi
Dew Point: 47°   Wind: 6mph
Humidity: 96%   Direction: 140°SE
Pressure: 29.43"   Gusts: NA
Location:  44.41°N, 88.86°W
Report Text: KPCZ 232115Z AUTO 14005KT 4SM -RA BKN004 BKN017 OVC034 09/09 A2943 RMK AO2 P0002 T00910085
Loading
Personal Weather Stations






























Interactive Weather Map New forecast layout! Learn more

10-Day Weather Forecast

Advertisements
Track Severe Weather on mobile